sensor_id;sensor_type;location;lat;lon;timestamp;P1;durP1;ratioP1;P2;durP2;ratioP2
19883;SDS011;10104;50.732;10.174;2023-06-19T00:02:08;8.15;;;7.45;;
19883;SDS011;10104;50.732;10.174;2023-06-19T00:04:29;8.48;;;7.18;;
19883;SDS011;10104;50.732;10.174;2023-06-19T00:06:51;8.18;;;7.30;;
19883;SDS011;10104;50.732;10.174;2023-06-19T00:09:12;8.20;;;7.40;;
19883;SDS011;10104;50.732;10.174;2023-06-19T00:11:34;8.48;;;7.75;;
19883;SDS011;10104;50.732;10.174;2023-06-19T00:13:56;8.80;;;8.00;;
19883;SDS011;10104;50.732;10.174;2023-06-19T00:16:17;10.65;;;7.30;;
19883;SDS011;10104;50.732;10.174;2023-06-19T00:18:40;8.52;;;7.72;;
19883;SDS011;10104;50.732;10.174;2023-06-19T00:21:02;8.10;;;7.30;;
19883;SDS011;10104;50.732;10.174;2023-06-19T00:23:26;9.48;;;7.05;;
19883;SDS011;10104;50.732;10.174;2023-06-19T00:25:48;9.57;;;7.65;;
19883;SDS011;10104;50.732;10.174;2023-06-19T00:28:10;8.23;;;7.43;;
19883;SDS011;10104;50.732;10.174;2023-06-19T00:30:35;8.32;;;7.43;;
19883;SDS011;10104;50.732;10.174;2023-06-19T00:32:56;7.43;;;6.82;;
19883;SDS011;10104;50.732;10.174;2023-06-19T00:35:18;9.10;;;7.18;;
19883;SDS011;10104;50.732;10.174;2023-06-19T00:37:40;7.93;;;7.18;;
19883;SDS011;10104;50.732;10.174;2023-06-19T00:40:07;8.32;;;7.47;;
19883;SDS011;10104;50.732;10.174;2023-06-19T00:42:31;8.40;;;7.53;;
19883;SDS011;10104;50.732;10.174;2023-06-19T00:44:53;8.05;;;7.10;;
19883;SDS011;10104;50.732;10.174;2023-06-19T00:47:14;8.00;;;7.20;;
19883;SDS011;10104;50.732;10.174;2023-06-19T00:49:36;8.55;;;7.50;;
19883;SDS011;10104;50.732;10.174;2023-06-19T00:51:57;7.80;;;7.10;;
19883;SDS011;10104;50.732;10.174;2023-06-19T00:54:19;9.05;;;7.70;;
19883;SDS011;10104;50.732;10.174;2023-06-19T00:56:42;8.20;;;7.40;;
19883;SDS011;10104;50.732;10.174;2023-06-19T00:59:05;7.97;;;7.28;;
19883;SDS011;10104;50.732;10.174;2023-06-19T01:01:29;8.05;;;7.32;;
19883;SDS011;10104;50.732;10.174;2023-06-19T01:03:50;7.90;;;7.20;;
19883;SDS011;10104;50.732;10.174;2023-06-19T01:06:17;8.13;;;7.32;;
19883;SDS011;10104;50.732;10.174;2023-06-19T01:08:51;8.35;;;7.30;;
19883;SDS011;10104;50.732;10.174;2023-06-19T01:11:15;8.00;;;7.20;;
19883;SDS011;10104;50.732;10.174;2023-06-19T01:13:48;8.38;;;7.07;;
19883;SDS011;10104;50.732;10.174;2023-06-19T01:16:17;8.18;;;7.38;;
19883;SDS011;10104;50.732;10.174;2023-06-19T01:18:39;8.23;;;7.43;;
19883;SDS011;10104;50.732;10.174;2023-06-19T01:21:11;7.65;;;6.95;;
19883;SDS011;10104;50.732;10.174;2023-06-19T01:23:33;8.15;;;7.35;;
19883;SDS011;10104;50.732;10.174;2023-06-19T01:25:55;8.25;;;7.45;;
19883;SDS011;10104;50.732;10.174;2023-06-19T01:28:16;8.63;;;7.72;;
19883;SDS011;10104;50.732;10.174;2023-06-19T01:30:39;9.40;;;7.80;;
19883;SDS011;10104;50.732;10.174;2023-06-19T01:33:04;8.27;;;7.45;;
19883;SDS011;10104;50.732;10.174;2023-06-19T01:35:28;8.40;;;7.70;;
19883;SDS011;10104;50.732;10.174;2023-06-19T01:37:54;8.35;;;7.50;;
19883;SDS011;10104;50.732;10.174;2023-06-19T01:40:17;9.02;;;7.65;;
19883;SDS011;10104;50.732;10.174;2023-06-19T01:42:43;7.60;;;7.00;;
19883;SDS011;10104;50.732;10.174;2023-06-19T01:45:05;8.07;;;7.13;;
19883;SDS011;10104;50.732;10.174;2023-06-19T01:47:27;7.70;;;6.72;;
19883;SDS011;10104;50.732;10.174;2023-06-19T01:49:49;8.10;;;6.82;;
19883;SDS011;10104;50.732;10.174;2023-06-19T01:52:10;8.65;;;7.75;;
19883;SDS011;10104;50.732;10.174;2023-06-19T01:54:32;8.98;;;7.47;;
19883;SDS011;10104;50.732;10.174;2023-06-19T01:56:53;7.72;;;7.03;;
19883;SDS011;10104;50.732;10.174;2023-06-19T01:59:15;8.30;;;7.22;;
19883;SDS011;10104;50.732;10.174;2023-06-19T02:01:36;8.23;;;7.45;;
19883;SDS011;10104;50.732;10.174;2023-06-19T02:03:58;29.20;;;7.63;;
19883;SDS011;10104;50.732;10.174;2023-06-19T02:06:20;9.88;;;7.25;;
19883;SDS011;10104;50.732;10.174;2023-06-19T02:08:42;7.55;;;6.78;;
19883;SDS011;10104;50.732;10.174;2023-06-19T02:11:04;9.30;;;7.97;;
19883;SDS011;10104;50.732;10.174;2023-06-19T02:13:25;8.45;;;7.43;;
19883;SDS011;10104;50.732;10.174;2023-06-19T02:15:47;8.57;;;7.60;;
19883;SDS011;10104;50.732;10.174;2023-06-19T02:18:08;9.85;;;7.38;;
19883;SDS011;10104;50.732;10.174;2023-06-19T02:20:30;8.45;;;7.65;;
19883;SDS011;10104;50.732;10.174;2023-06-19T02:22:51;9.85;;;8.43;;
19883;SDS011;10104;50.732;10.174;2023-06-19T02:25:13;8.48;;;7.68;;
19883;SDS011;10104;50.732;10.174;2023-06-19T02:27:35;8.32;;;7.53;;
19883;SDS011;10104;50.732;10.174;2023-06-19T02:29:56;8.75;;;7.78;;
19883;SDS011;10104;50.732;10.174;2023-06-19T02:32:18;7.57;;;6.95;;
19883;SDS011;10104;50.732;10.174;2023-06-19T02:34:39;9.02;;;8.13;;
19883;SDS011;10104;50.732;10.174;2023-06-19T02:37:01;8.15;;;7.35;;
19883;SDS011;10104;50.732;10.174;2023-06-19T02:39:22;10.18;;;7.35;;
19883;SDS011;10104;50.732;10.174;2023-06-19T02:41:45;8.63;;;7.82;;
19883;SDS011;10104;50.732;10.174;2023-06-19T02:44:08;8.13;;;7.32;;
19883;SDS011;10104;50.732;10.174;2023-06-19T02:46:29;8.95;;;8.05;;
19883;SDS011;10104;50.732;10.174;2023-06-19T02:48:50;10.30;;;7.68;;
19883;SDS011;10104;50.732;10.174;2023-06-19T02:51:12;8.55;;;6.97;;
19883;SDS011;10104;50.732;10.174;2023-06-19T02:53:33;8.20;;;7.40;;
19883;SDS011;10104;50.732;10.174;2023-06-19T02:55:55;8.38;;;7.57;;
19883;SDS011;10104;50.732;10.174;2023-06-19T02:58:17;8.10;;;6.82;;
19883;SDS011;10104;50.732;10.174;2023-06-19T03:00:38;8.45;;;7.65;;
19883;SDS011;10104;50.732;10.174;2023-06-19T03:03:00;10.27;;;7.63;;
19883;SDS011;10104;50.732;10.174;2023-06-19T03:05:22;7.60;;;6.90;;
19883;SDS011;10104;50.732;10.174;2023-06-19T03:07:43;8.80;;;8.00;;
19883;SDS011;10104;50.732;10.174;2023-06-19T03:10:06;9.70;;;7.72;;
19883;SDS011;10104;50.732;10.174;2023-06-19T03:12:27;9.02;;;7.75;;
19883;SDS011;10104;50.732;10.174;2023-06-19T03:14:49;8.45;;;7.60;;
19883;SDS011;10104;50.732;10.174;2023-06-19T03:17:10;8.23;;;7.43;;
19883;SDS011;10104;50.732;10.174;2023-06-19T03:19:33;8.43;;;7.53;;
19883;SDS011;10104;50.732;10.174;2023-06-19T03:21:55;8.10;;;7.22;;
19883;SDS011;10104;50.732;10.174;2023-06-19T03:24:16;8.43;;;7.35;;
19883;SDS011;10104;50.732;10.174;2023-06-19T03:26:38;8.98;;;8.05;;
19883;SDS011;10104;50.732;10.174;2023-06-19T03:29:00;8.48;;;7.40;;
19883;SDS011;10104;50.732;10.174;2023-06-19T03:31:21;9.60;;;7.55;;
19883;SDS011;10104;50.732;10.174;2023-06-19T03:33:42;8.48;;;7.70;;
19883;SDS011;10104;50.732;10.174;2023-06-19T03:36:04;7.68;;;6.72;;
19883;SDS011;10104;50.732;10.174;2023-06-19T03:38:26;8.57;;;7.78;;
19883;SDS011;10104;50.732;10.174;2023-06-19T03:40:48;8.50;;;7.60;;
19883;SDS011;10104;50.732;10.174;2023-06-19T03:43:09;8.15;;;7.45;;
19883;SDS011;10104;50.732;10.174;2023-06-19T03:45:32;7.85;;;7.15;;
19883;SDS011;10104;50.732;10.174;2023-06-19T03:47:53;10.32;;;7.57;;
19883;SDS011;10104;50.732;10.174;2023-06-19T03:50:15;11.13;;;7.68;;
19883;SDS011;10104;50.732;10.174;2023-06-19T03:52:51;9.60;;;7.85;;
19883;SDS011;10104;50.732;10.174;2023-06-19T03:55:12;9.38;;;7.38;;
19883;SDS011;10104;50.732;10.174;2023-06-19T03:57:34;9.18;;;7.25;;
19883;SDS011;10104;50.732;10.174;2023-06-19T03:59:56;8.45;;;7.65;;
19883;SDS011;10104;50.732;10.174;2023-06-19T04:02:17;8.55;;;7.75;;
19883;SDS011;10104;50.732;10.174;2023-06-19T04:04:39;8.60;;;7.53;;
19883;SDS011;10104;50.732;10.174;2023-06-19T04:07:00;7.63;;;6.88;;
19883;SDS011;10104;50.732;10.174;2023-06-19T04:09:22;9.80;;;7.50;;
19883;SDS011;10104;50.732;10.174;2023-06-19T04:11:43;8.77;;;7.50;;
19883;SDS011;10104;50.732;10.174;2023-06-19T04:14:05;7.90;;;7.20;;
19883;SDS011;10104;50.732;10.174;2023-06-19T04:16:26;7.38;;;6.68;;
19883;SDS011;10104;50.732;10.174;2023-06-19T04:18:48;8.18;;;7.45;;
19883;SDS011;10104;50.732;10.174;2023-06-19T04:21:09;7.57;;;6.88;;
19883;SDS011;10104;50.732;10.174;2023-06-19T04:23:31;8.50;;;7.50;;
19883;SDS011;10104;50.732;10.174;2023-06-19T04:25:52;7.97;;;7.18;;
19883;SDS011;10104;50.732;10.174;2023-06-19T04:28:14;8.35;;;7.55;;
19883;SDS011;10104;50.732;10.174;2023-06-19T04:30:35;8.48;;;7.57;;
19883;SDS011;10104;50.732;10.174;2023-06-19T04:33:00;8.00;;;7.20;;
19883;SDS011;10104;50.732;10.174;2023-06-19T04:35:22;8.80;;;7.28;;
19883;SDS011;10104;50.732;10.174;2023-06-19T04:37:45;9.38;;;7.40;;
19883;SDS011;10104;50.732;10.174;2023-06-19T04:40:06;7.30;;;6.70;;
19883;SDS011;10104;50.732;10.174;2023-06-19T04:42:29;7.88;;;7.15;;
19883;SDS011;10104;50.732;10.174;2023-06-19T04:44:50;7.38;;;6.78;;
19883;SDS011;10104;50.732;10.174;2023-06-19T04:47:12;8.50;;;7.70;;
19883;SDS011;10104;50.732;10.174;2023-06-19T04:49:34;7.43;;;6.72;;
19883;SDS011;10104;50.732;10.174;2023-06-19T04:51:56;7.55;;;6.85;;
19883;SDS011;10104;50.732;10.174;2023-06-19T04:54:18;7.60;;;6.90;;
19883;SDS011;10104;50.732;10.174;2023-06-19T04:56:40;8.60;;;6.60;;
19883;SDS011;10104;50.732;10.174;2023-06-19T04:59:01;8.23;;;6.95;;
19883;SDS011;10104;50.732;10.174;2023-06-19T05:01:23;8.25;;;7.30;;
19883;SDS011;10104;50.732;10.174;2023-06-19T05:03:49;7.90;;;6.22;;
19883;SDS011;10104;50.732;10.174;2023-06-19T05:06:10;7.55;;;6.85;;
19883;SDS011;10104;50.732;10.174;2023-06-19T05:08:32;9.05;;;7.10;;
19883;SDS011;10104;50.732;10.174;2023-06-19T05:10:54;7.97;;;7.18;;
19883;SDS011;10104;50.732;10.174;2023-06-19T05:13:16;9.43;;;6.72;;
19883;SDS011;10104;50.732;10.174;2023-06-19T05:15:39;8.65;;;6.95;;
19883;SDS011;10104;50.732;10.174;2023-06-19T05:18:01;11.13;;;7.43;;
19883;SDS011;10104;50.732;10.174;2023-06-19T05:20:22;12.05;;;6.70;;
19883;SDS011;10104;50.732;10.174;2023-06-19T05:22:44;8.82;;;7.25;;
19883;SDS011;10104;50.732;10.174;2023-06-19T05:25:06;7.47;;;6.78;;
19883;SDS011;10104;50.732;10.174;2023-06-19T05:27:28;8.25;;;6.90;;
19883;SDS011;10104;50.732;10.174;2023-06-19T05:29:49;7.78;;;6.70;;
19883;SDS011;10104;50.732;10.174;2023-06-19T05:32:11;7.32;;;6.63;;
19883;SDS011;10104;50.732;10.174;2023-06-19T05:34:32;8.02;;;7.22;;
19883;SDS011;10104;50.732;10.174;2023-06-19T05:36:54;7.60;;;6.80;;
19883;SDS011;10104;50.732;10.174;2023-06-19T05:39:15;8.80;;;7.20;;
19883;SDS011;10104;50.732;10.174;2023-06-19T05:41:40;7.90;;;7.20;;
19883;SDS011;10104;50.732;10.174;2023-06-19T05:44:02;7.63;;;6.93;;
19883;SDS011;10104;50.732;10.174;2023-06-19T05:46:24;15.48;;;6.43;;
19883;SDS011;10104;50.732;10.174;2023-06-19T05:48:46;7.78;;;7.05;;
19883;SDS011;10104;50.732;10.174;2023-06-19T05:51:08;7.88;;;7.07;;
19883;SDS011;10104;50.732;10.174;2023-06-19T05:53:30;8.20;;;7.40;;
19883;SDS011;10104;50.732;10.174;2023-06-19T05:55:52;7.50;;;6.75;;
19883;SDS011;10104;50.732;10.174;2023-06-19T05:58:14;7.43;;;6.72;;
19883;SDS011;10104;50.732;10.174;2023-06-19T06:00:35;8.13;;;7.32;;
19883;SDS011;10104;50.732;10.174;2023-06-19T06:02:57;7.68;;;6.97;;
19883;SDS011;10104;50.732;10.174;2023-06-19T06:05:22;6.82;;;6.22;;
19883;SDS011;10104;50.732;10.174;2023-06-19T06:07:46;8.07;;;6.70;;
19883;SDS011;10104;50.732;10.174;2023-06-19T06:10:07;8.70;;;7.05;;
19883;SDS011;10104;50.732;10.174;2023-06-19T06:12:29;8.80;;;7.32;;
19883;SDS011;10104;50.732;10.174;2023-06-19T06:14:51;7.97;;;7.18;;
19883;SDS011;10104;50.732;10.174;2023-06-19T06:17:12;7.50;;;6.80;;
19883;SDS011;10104;50.732;10.174;2023-06-19T06:19:34;8.55;;;7.25;;
19883;SDS011;10104;50.732;10.174;2023-06-19T06:21:55;12.30;;;7.68;;
19883;SDS011;10104;50.732;10.174;2023-06-19T06:24:17;9.75;;;7.30;;
19883;SDS011;10104;50.732;10.174;2023-06-19T06:26:39;7.50;;;6.70;;
19883;SDS011;10104;50.732;10.174;2023-06-19T06:29:00;11.30;;;6.93;;
19883;SDS011;10104;50.732;10.174;2023-06-19T06:31:22;8.55;;;7.30;;
19883;SDS011;10104;50.732;10.174;2023-06-19T06:33:44;7.72;;;7.03;;
19883;SDS011;10104;50.732;10.174;2023-06-19T06:36:06;8.13;;;6.90;;
19883;SDS011;10104;50.732;10.174;2023-06-19T06:38:29;7.38;;;6.68;;
19883;SDS011;10104;50.732;10.174;2023-06-19T06:40:50;6.85;;;6.25;;
19883;SDS011;10104;50.732;10.174;2023-06-19T06:43:13;9.80;;;6.38;;
19883;SDS011;10104;50.732;10.174;2023-06-19T06:45:34;7.22;;;6.53;;
19883;SDS011;10104;50.732;10.174;2023-06-19T06:47:58;7.95;;;5.57;;
19883;SDS011;10104;50.732;10.174;2023-06-19T06:50:20;6.10;;;5.50;;
19883;SDS011;10104;50.732;10.174;2023-06-19T06:52:42;6.88;;;6.18;;
19883;SDS011;10104;50.732;10.174;2023-06-19T06:55:04;5.90;;;5.40;;
19883;SDS011;10104;50.732;10.174;2023-06-19T06:57:26;6.88;;;5.40;;
19883;SDS011;10104;50.732;10.174;2023-06-19T06:59:47;6.43;;;5.45;;
19883;SDS011;10104;50.732;10.174;2023-06-19T07:02:09;5.68;;;5.18;;
19883;SDS011;10104;50.732;10.174;2023-06-19T07:04:31;6.28;;;5.78;;
19883;SDS011;10104;50.732;10.174;2023-06-19T07:06:52;6.43;;;5.82;;
19883;SDS011;10104;50.732;10.174;2023-06-19T07:09:14;6.30;;;5.45;;
19883;SDS011;10104;50.732;10.174;2023-06-19T07:11:38;9.02;;;5.45;;
19883;SDS011;10104;50.732;10.174;2023-06-19T07:14:01;6.63;;;5.93;;
19883;SDS011;10104;50.732;10.174;2023-06-19T07:16:23;6.35;;;5.75;;
19883;SDS011;10104;50.732;10.174;2023-06-19T07:18:45;6.38;;;5.82;;
19883;SDS011;10104;50.732;10.174;2023-06-19T07:21:09;6.55;;;5.90;;
19883;SDS011;10104;50.732;10.174;2023-06-19T07:23:34;6.10;;;5.50;;
19883;SDS011;10104;50.732;10.174;2023-06-19T07:25:58;7.28;;;5.93;;
19883;SDS011;10104;50.732;10.174;2023-06-19T07:28:19;6.35;;;5.80;;
19883;SDS011;10104;50.732;10.174;2023-06-19T07:30:41;6.85;;;5.60;;
19883;SDS011;10104;50.732;10.174;2023-06-19T07:33:02;6.35;;;5.60;;
19883;SDS011;10104;50.732;10.174;2023-06-19T07:35:24;6.32;;;5.80;;
19883;SDS011;10104;50.732;10.174;2023-06-19T07:37:45;8.48;;;6.20;;
19883;SDS011;10104;50.732;10.174;2023-06-19T07:40:07;6.93;;;6.22;;
19883;SDS011;10104;50.732;10.174;2023-06-19T07:42:29;6.65;;;5.95;;
19883;SDS011;10104;50.732;10.174;2023-06-19T07:44:50;6.50;;;5.90;;
19883;SDS011;10104;50.732;10.174;2023-06-19T07:47:12;6.88;;;5.85;;
19883;SDS011;10104;50.732;10.174;2023-06-19T07:49:35;6.38;;;5.78;;
19883;SDS011;10104;50.732;10.174;2023-06-19T07:51:57;6.72;;;6.07;;
19883;SDS011;10104;50.732;10.174;2023-06-19T07:54:18;7.13;;;5.55;;
19883;SDS011;10104;50.732;10.174;2023-06-19T07:56:40;5.57;;;5.07;;
19883;SDS011;10104;50.732;10.174;2023-06-19T07:59:02;9.00;;;5.10;;
19883;SDS011;10104;50.732;10.174;2023-06-19T08:01:26;5.93;;;5.43;;
19883;SDS011;10104;50.732;10.174;2023-06-19T08:03:47;6.18;;;5.13;;
19883;SDS011;10104;50.732;10.174;2023-06-19T08:06:09;6.15;;;5.30;;
19883;SDS011;10104;50.732;10.174;2023-06-19T08:08:31;6.55;;;5.45;;
19883;SDS011;10104;50.732;10.174;2023-06-19T08:10:52;6.20;;;5.63;;
19883;SDS011;10104;50.732;10.174;2023-06-19T08:13:14;6.13;;;5.30;;
19883;SDS011;10104;50.732;10.174;2023-06-19T08:15:35;6.15;;;5.30;;
19883;SDS011;10104;50.732;10.174;2023-06-19T08:17:57;6.22;;;5.63;;
19883;SDS011;10104;50.732;10.174;2023-06-19T08:20:18;6.13;;;5.60;;
19883;SDS011;10104;50.732;10.174;2023-06-19T08:22:42;5.75;;;5.25;;
19883;SDS011;10104;50.732;10.174;2023-06-19T08:25:04;6.13;;;5.47;;
19883;SDS011;10104;50.732;10.174;2023-06-19T08:27:26;6.70;;;5.18;;
19883;SDS011;10104;50.732;10.174;2023-06-19T08:29:47;7.88;;;5.32;;
19883;SDS011;10104;50.732;10.174;2023-06-19T08:32:09;5.97;;;5.47;;
19883;SDS011;10104;50.732;10.174;2023-06-19T08:34:30;5.82;;;5.03;;
19883;SDS011;10104;50.732;10.174;2023-06-19T08:36:52;5.97;;;5.47;;
19883;SDS011;10104;50.732;10.174;2023-06-19T08:39:13;5.95;;;5.10;;
19883;SDS011;10104;50.732;10.174;2023-06-19T08:41:38;5.75;;;5.25;;
19883;SDS011;10104;50.732;10.174;2023-06-19T08:44:00;6.97;;;5.50;;
19883;SDS011;10104;50.732;10.174;2023-06-19T08:46:21;9.18;;;5.72;;
19883;SDS011;10104;50.732;10.174;2023-06-19T08:48:43;6.60;;;4.88;;
19883;SDS011;10104;50.732;10.174;2023-06-19T08:51:05;6.25;;;5.07;;
19883;SDS011;10104;50.732;10.174;2023-06-19T08:53:27;8.18;;;4.80;;
19883;SDS011;10104;50.732;10.174;2023-06-19T08:55:49;5.18;;;4.68;;
19883;SDS011;10104;50.732;10.174;2023-06-19T08:58:12;5.82;;;5.32;;
19883;SDS011;10104;50.732;10.174;2023-06-19T09:00:46;6.63;;;5.20;;
19883;SDS011;10104;50.732;10.174;2023-06-19T09:03:08;5.97;;;4.88;;
19883;SDS011;10104;50.732;10.174;2023-06-19T09:05:35;5.70;;;4.88;;
19883;SDS011;10104;50.732;10.174;2023-06-19T09:08:01;6.25;;;5.38;;
19883;SDS011;10104;50.732;10.174;2023-06-19T09:10:23;5.95;;;4.72;;
19883;SDS011;10104;50.732;10.174;2023-06-19T09:15:26;6.45;;;5.20;;
19883;SDS011;10104;50.732;10.174;2023-06-19T09:18:02;5.53;;;5.03;;
19883;SDS011;10104;50.732;10.174;2023-06-19T09:20:28;6.88;;;5.22;;
19883;SDS011;10104;50.732;10.174;2023-06-19T09:22:53;6.95;;;5.40;;
19883;SDS011;10104;50.732;10.174;2023-06-19T09:25:16;6.10;;;5.60;;
19883;SDS011;10104;50.732;10.174;2023-06-19T09:27:39;5.80;;;5.30;;
19883;SDS011;10104;50.732;10.174;2023-06-19T09:30:00;5.53;;;5.03;;
19883;SDS011;10104;50.732;10.174;2023-06-19T09:32:26;5.50;;;5.00;;
19883;SDS011;10104;50.732;10.174;2023-06-19T09:34:53;5.78;;;5.28;;
19883;SDS011;10104;50.732;10.174;2023-06-19T09:37:22;5.40;;;5.00;;
19883;SDS011;10104;50.732;10.174;2023-06-19T09:39:45;6.95;;;5.80;;
19883;SDS011;10104;50.732;10.174;2023-06-19T09:42:09;6.22;;;5.72;;
19883;SDS011;10104;50.732;10.174;2023-06-19T09:44:31;6.70;;;5.03;;
19883;SDS011;10104;50.732;10.174;2023-06-19T09:47:09;5.90;;;5.40;;
19883;SDS011;10104;50.732;10.174;2023-06-19T09:49:39;5.10;;;4.70;;
19883;SDS011;10104;50.732;10.174;2023-06-19T09:52:01;6.43;;;5.03;;
19883;SDS011;10104;50.732;10.174;2023-06-19T09:54:24;5.00;;;4.60;;
19883;SDS011;10104;50.732;10.174;2023-06-19T09:56:47;5.75;;;4.57;;
19883;SDS011;10104;50.732;10.174;2023-06-19T09:59:12;5.72;;;5.15;;
19883;SDS011;10104;50.732;10.174;2023-06-19T10:01:34;5.93;;;5.38;;
19883;SDS011;10104;50.732;10.174;2023-06-19T10:04:05;5.07;;;4.68;;
19883;SDS011;10104;50.732;10.174;2023-06-19T10:06:28;5.30;;;4.80;;
19883;SDS011;10104;50.732;10.174;2023-06-19T10:08:51;5.20;;;4.70;;
19883;SDS011;10104;50.732;10.174;2023-06-19T10:11:13;5.35;;;4.93;;
19883;SDS011;10104;50.732;10.174;2023-06-19T10:13:36;9.02;;;5.13;;
19883;SDS011;10104;50.732;10.174;2023-06-19T10:16:00;5.38;;;4.45;;
19883;SDS011;10104;50.732;10.174;2023-06-19T10:18:22;4.82;;;4.43;;
19883;SDS011;10104;50.732;10.174;2023-06-19T10:20:46;5.10;;;4.47;;
19883;SDS011;10104;50.732;10.174;2023-06-19T10:23:13;5.32;;;4.75;;
19883;SDS011;10104;50.732;10.174;2023-06-19T10:25:41;5.60;;;5.00;;
19883;SDS011;10104;50.732;10.174;2023-06-19T10:28:15;6.28;;;4.78;;
19883;SDS011;10104;50.732;10.174;2023-06-19T10:31:03;5.05;;;4.65;;
19883;SDS011;10104;50.732;10.174;2023-06-19T10:33:26;5.13;;;4.50;;
19883;SDS011;10104;50.732;10.174;2023-06-19T10:35:49;5.63;;;4.90;;
19883;SDS011;10104;50.732;10.174;2023-06-19T10:38:10;4.82;;;4.43;;
19883;SDS011;10104;50.732;10.174;2023-06-19T10:40:36;6.45;;;4.40;;
19883;SDS011;10104;50.732;10.174;2023-06-19T10:42:58;6.05;;;4.75;;
19883;SDS011;10104;50.732;10.174;2023-06-19T10:45:19;5.45;;;4.75;;
19883;SDS011;10104;50.732;10.174;2023-06-19T10:47:42;5.38;;;4.22;;
19883;SDS011;10104;50.732;10.174;2023-06-19T10:50:05;4.93;;;4.55;;
19883;SDS011;10104;50.732;10.174;2023-06-19T10:52:36;5.32;;;4.82;;
19883;SDS011;10104;50.732;10.174;2023-06-19T10:55:00;5.10;;;4.60;;
19883;SDS011;10104;50.732;10.174;2023-06-19T10:57:28;4.63;;;4.10;;
19883;SDS011;10104;50.732;10.174;2023-06-19T10:59:50;5.85;;;4.50;;
19883;SDS011;10104;50.732;10.174;2023-06-19T11:02:13;4.50;;;4.10;;
19883;SDS011;10104;50.732;10.174;2023-06-19T11:04:37;6.90;;;4.20;;
19883;SDS011;10104;50.732;10.174;2023-06-19T11:07:04;4.88;;;4.47;;
19883;SDS011;10104;50.732;10.174;2023-06-19T11:09:26;4.45;;;4.05;;
19883;SDS011;10104;50.732;10.174;2023-06-19T11:11:48;5.00;;;4.25;;
19883;SDS011;10104;50.732;10.174;2023-06-19T11:14:10;4.85;;;4.45;;
19883;SDS011;10104;50.732;10.174;2023-06-19T11:16:34;5.13;;;4.50;;
19883;SDS011;10104;50.732;10.174;2023-06-19T11:18:56;4.45;;;4.05;;
19883;SDS011;10104;50.732;10.174;2023-06-19T11:21:18;4.80;;;4.38;;
19883;SDS011;10104;50.732;10.174;2023-06-19T11:23:40;4.95;;;4.13;;
19883;SDS011;10104;50.732;10.174;2023-06-19T11:26:05;4.45;;;4.00;;
19883;SDS011;10104;50.732;10.174;2023-06-19T11:28:27;5.95;;;4.10;;
19883;SDS011;10104;50.732;10.174;2023-06-19T11:30:57;6.32;;;4.40;;
19883;SDS011;10104;50.732;10.174;2023-06-19T11:33:20;4.40;;;4.00;;
19883;SDS011;10104;50.732;10.174;2023-06-19T11:35:52;4.25;;;3.95;;
19883;SDS011;10104;50.732;10.174;2023-06-19T11:38:19;5.22;;;4.38;;
19883;SDS011;10104;50.732;10.174;2023-06-19T11:40:42;4.65;;;4.30;;
19883;SDS011;10104;50.732;10.174;2023-06-19T11:43:04;4.72;;;4.25;;
19883;SDS011;10104;50.732;10.174;2023-06-19T11:45:25;4.70;;;4.30;;
19883;SDS011;10104;50.732;10.174;2023-06-19T11:47:48;4.50;;;4.10;;
19883;SDS011;10104;50.732;10.174;2023-06-19T11:50:10;4.53;;;3.70;;
19883;SDS011;10104;50.732;10.174;2023-06-19T11:52:33;4.57;;;4.28;;
19883;SDS011;10104;50.732;10.174;2023-06-19T11:54:54;4.55;;;3.97;;
19883;SDS011;10104;50.732;10.174;2023-06-19T11:57:16;5.63;;;3.83;;
19883;SDS011;10104;50.732;10.174;2023-06-19T11:59:41;4.72;;;4.43;;
19883;SDS011;10104;50.732;10.174;2023-06-19T12:02:03;4.85;;;4.45;;
19883;SDS011;10104;50.732;10.174;2023-06-19T12:04:25;4.72;;;4.30;;
19883;SDS011;10104;50.732;10.174;2023-06-19T12:06:47;5.20;;;4.80;;
19883;SDS011;10104;50.732;10.174;2023-06-19T12:09:08;4.97;;;4.45;;
19883;SDS011;10104;50.732;10.174;2023-06-19T12:11:31;5.28;;;4.20;;
19883;SDS011;10104;50.732;10.174;2023-06-19T12:13:52;5.18;;;4.78;;
19883;SDS011;10104;50.732;10.174;2023-06-19T12:16:14;4.75;;;4.32;;
19883;SDS011;10104;50.732;10.174;2023-06-19T12:18:36;6.68;;;4.55;;
19883;SDS011;10104;50.732;10.174;2023-06-19T12:20:58;5.70;;;5.20;;
19883;SDS011;10104;50.732;10.174;2023-06-19T12:23:19;5.30;;;4.90;;
19883;SDS011;10104;50.732;10.174;2023-06-19T12:25:41;5.45;;;5.00;;
19883;SDS011;10104;50.732;10.174;2023-06-19T12:28:02;4.90;;;4.45;;
19883;SDS011;10104;50.732;10.174;2023-06-19T12:30:29;5.00;;;4.60;;
19883;SDS011;10104;50.732;10.174;2023-06-19T12:32:50;6.25;;;4.68;;
19883;SDS011;10104;50.732;10.174;2023-06-19T12:35:12;4.80;;;4.40;;
19883;SDS011;10104;50.732;10.174;2023-06-19T12:37:34;4.70;;;4.32;;
19883;SDS011;10104;50.732;10.174;2023-06-19T12:39:55;5.30;;;4.80;;
19883;SDS011;10104;50.732;10.174;2023-06-19T12:42:17;4.78;;;4.22;;
19883;SDS011;10104;50.732;10.174;2023-06-19T12:44:39;5.22;;;4.82;;
19883;SDS011;10104;50.732;10.174;2023-06-19T12:47:01;4.50;;;4.20;;
19883;SDS011;10104;50.732;10.174;2023-06-19T12:49:22;4.30;;;4.00;;
19883;SDS011;10104;50.732;10.174;2023-06-19T12:51:44;5.28;;;4.75;;
19883;SDS011;10104;50.732;10.174;2023-06-19T12:54:05;5.28;;;4.65;;
19883;SDS011;10104;50.732;10.174;2023-06-19T12:56:27;5.20;;;4.68;;
19883;SDS011;10104;50.732;10.174;2023-06-19T12:58:48;5.25;;;4.85;;
19883;SDS011;10104;50.732;10.174;2023-06-19T13:01:10;5.20;;;4.68;;
19883;SDS011;10104;50.732;10.174;2023-06-19T13:03:31;5.15;;;4.68;;
19883;SDS011;10104;50.732;10.174;2023-06-19T13:05:53;4.95;;;4.55;;
19883;SDS011;10104;50.732;10.174;2023-06-19T13:08:15;4.70;;;4.32;;
19883;SDS011;10104;50.732;10.174;2023-06-19T13:10:36;5.32;;;4.82;;
19883;SDS011;10104;50.732;10.174;2023-06-19T13:12:59;5.00;;;4.60;;
19883;SDS011;10104;50.732;10.174;2023-06-19T13:15:21;5.40;;;4.95;;
19883;SDS011;10104;50.732;10.174;2023-06-19T13:17:42;4.60;;;4.30;;
19883;SDS011;10104;50.732;10.174;2023-06-19T13:20:04;5.15;;;4.75;;
19883;SDS011;10104;50.732;10.174;2023-06-19T13:22:26;5.05;;;4.60;;
19883;SDS011;10104;50.732;10.174;2023-06-19T13:24:48;4.78;;;4.18;;
19883;SDS011;10104;50.732;10.174;2023-06-19T13:27:09;5.75;;;4.18;;
19883;SDS011;10104;50.732;10.174;2023-06-19T13:29:31;7.50;;;4.40;;
19883;SDS011;10104;50.732;10.174;2023-06-19T13:31:53;5.88;;;4.68;;
19883;SDS011;10104;50.732;10.174;2023-06-19T13:34:14;4.80;;;4.40;;
19883;SDS011;10104;50.732;10.174;2023-06-19T13:36:37;4.80;;;4.43;;
19883;SDS011;10104;50.732;10.174;2023-06-19T13:38:59;4.10;;;3.78;;
19883;SDS011;10104;50.732;10.174;2023-06-19T13:41:21;5.45;;;4.30;;
19883;SDS011;10104;50.732;10.174;2023-06-19T13:43:45;3.92;;;3.60;;
19883;SDS011;10104;50.732;10.174;2023-06-19T13:46:07;5.18;;;3.95;;
19883;SDS011;10104;50.732;10.174;2023-06-19T13:48:29;4.43;;;4.03;;
19883;SDS011;10104;50.732;10.174;2023-06-19T13:50:50;4.60;;;4.00;;
19883;SDS011;10104;50.732;10.174;2023-06-19T13:53:12;3.78;;;3.47;;
19883;SDS011;10104;50.732;10.174;2023-06-19T13:55:34;4.47;;;3.60;;
19883;SDS011;10104;50.732;10.174;2023-06-19T13:57:57;4.57;;;4.18;;
19883;SDS011;10104;50.732;10.174;2023-06-19T14:00:18;4.85;;;4.03;;
19883;SDS011;10104;50.732;10.174;2023-06-19T14:02:40;4.88;;;4.43;;
19883;SDS011;10104;50.732;10.174;2023-06-19T14:05:03;4.60;;;4.20;;
19883;SDS011;10104;50.732;10.174;2023-06-19T14:07:28;5.30;;;4.80;;
19883;SDS011;10104;50.732;10.174;2023-06-19T14:09:50;4.82;;;4.25;;